sensor_id;sensor_type;location;lat;lon;timestamp;temperature;humidity
5786;DHT22;2919;48.630;9.000;2023-06-10T06:51:14;18.10;99.90
5786;DHT22;2919;48.630;9.000;2023-06-10T06:53:40;18.30;99.90
5786;DHT22;2919;48.630;9.000;2023-06-10T06:56:11;18.40;99.90
5786;DHT22;2919;48.630;9.000;2023-06-10T06:58:37;18.50;99.90
5786;DHT22;2919;48.630;9.000;2023-06-10T07:01:03;18.70;99.90
5786;DHT22;2919;48.630;9.000;2023-06-10T07:03:29;18.80;99.90
5786;DHT22;2919;48.630;9.000;2023-06-10T07:05:55;19.00;99.90
5786;DHT22;2919;48.630;9.000;2023-06-10T07:08:21;19.20;99.90
5786;DHT22;2919;48.630;9.000;2023-06-10T07:10:46;19.40;99.60
5786;DHT22;2919;48.630;9.000;2023-06-10T07:13:12;19.50;99.10
5786;DHT22;2919;48.630;9.000;2023-06-10T07:15:38;19.70;98.70
5786;DHT22;2919;48.630;9.000;2023-06-10T07:18:04;20.00;98.30
5786;DHT22;2919;48.630;9.000;2023-06-10T07:20:30;20.20;97.70
5786;DHT22;2919;48.630;9.000;2023-06-10T07:22:55;20.40;98.00
5786;DHT22;2919;48.630;9.000;2023-06-10T07:25:21;20.80;98.60
5786;DHT22;2919;48.630;9.000;2023-06-10T07:27:47;21.20;97.40
5786;DHT22;2919;48.630;9.000;2023-06-10T07:30:13;21.70;95.70
5786;DHT22;2919;48.630;9.000;2023-06-10T07:32:38;22.00;94.90
5786;DHT22;2919;48.630;9.000;2023-06-10T07:35:08;22.20;93.90
5786;DHT22;2919;48.630;9.000;2023-06-10T07:37:33;22.60;93.80
5786;DHT22;2919;48.630;9.000;2023-06-10T07:39:59;23.40;91.90
5786;DHT22;2919;48.630;9.000;2023-06-10T07:42:25;24.60;88.90
5786;DHT22;2919;48.630;9.000;2023-06-10T07:44:50;25.00;88.60
5786;DHT22;2919;48.630;9.000;2023-06-10T07:47:16;25.50;88.10
5786;DHT22;2919;48.630;9.000;2023-06-10T07:49:41;25.40;85.10
5786;DHT22;2919;48.630;9.000;2023-06-10T07:52:08;26.50;84.60
5786;DHT22;2919;48.630;9.000;2023-06-10T07:54:33;27.50;76.30
5786;DHT22;2919;48.630;9.000;2023-06-10T07:56:59;27.20;76.90
5786;DHT22;2919;48.630;9.000;2023-06-10T07:59:24;26.90;77.90
5786;DHT22;2919;48.630;9.000;2023-06-10T08:01:52;27.70;75.90
5786;DHT22;2919;48.630;9.000;2023-06-10T08:04:18;28.00;82.20
5786;DHT22;2919;48.630;9.000;2023-06-10T08:06:43;27.70;73.90
5786;DHT22;2919;48.630;9.000;2023-06-10T08:09:09;28.10;72.80
5786;DHT22;2919;48.630;9.000;2023-06-10T08:11:35;28.20;72.50
5786;DHT22;2919;48.630;9.000;2023-06-10T08:14:00;28.10;71.40
5786;DHT22;2919;48.630;9.000;2023-06-10T08:16:26;28.30;70.00
5786;DHT22;2919;48.630;9.000;2023-06-10T08:18:52;28.20;68.90
5786;DHT22;2919;48.630;9.000;2023-06-10T08:21:18;27.90;70.00
5786;DHT22;2919;48.630;9.000;2023-06-10T08:23:44;26.70;73.80
5786;DHT22;2919;48.630;9.000;2023-06-10T08:26:09;26.70;73.50
5786;DHT22;2919;48.630;9.000;2023-06-10T08:31:01;27.10;73.60
5786;DHT22;2919;48.630;9.000;2023-06-10T08:33:26;27.50;71.80
5786;DHT22;2919;48.630;9.000;2023-06-10T08:35:52;28.30;68.90
5786;DHT22;2919;48.630;9.000;2023-06-10T08:38:18;28.20;70.20
5786;DHT22;2919;48.630;9.000;2023-06-10T08:40:43;27.70;72.00
5786;DHT22;2919;48.630;9.000;2023-06-10T08:46:01;28.10;70.30
5786;DHT22;2919;48.630;9.000;2023-06-10T08:48:30;28.20;70.40
5786;DHT22;2919;48.630;9.000;2023-06-10T08:51:00;28.50;69.50
5786;DHT22;2919;48.630;9.000;2023-06-10T08:53:26;27.90;70.00
5786;DHT22;2919;48.630;9.000;2023-06-10T08:58:19;28.40;67.30
5786;DHT22;2919;48.630;9.000;2023-06-10T09:00:45;28.50;67.50
5786;DHT22;2919;48.630;9.000;2023-06-10T09:03:11;28.60;67.10
5786;DHT22;2919;48.630;9.000;2023-06-10T09:05:37;28.50;67.20
5786;DHT22;2919;48.630;9.000;2023-06-10T09:08:05;27.70;68.40
5786;DHT22;2919;48.630;9.000;2023-06-10T09:10:32;27.80;69.30
5786;DHT22;2919;48.630;9.000;2023-06-10T09:12:58;27.80;69.90
5786;DHT22;2919;48.630;9.000;2023-06-10T09:15:23;28.20;69.00
5786;DHT22;2919;48.630;9.000;2023-06-10T09:17:49;28.40;67.50
5786;DHT22;2919;48.630;9.000;2023-06-10T09:20:16;28.30;67.10
5786;DHT22;2919;48.630;9.000;2023-06-10T09:22:42;27.90;69.30
5786;DHT22;2919;48.630;9.000;2023-06-10T09:25:10;27.80;69.30
5786;DHT22;2919;48.630;9.000;2023-06-10T09:27:51;28.20;67.60
5786;DHT22;2919;48.630;9.000;2023-06-10T09:30:33;27.80;68.40
5786;DHT22;2919;48.630;9.000;2023-06-10T09:33:10;27.40;69.40
5786;DHT22;2919;48.630;9.000;2023-06-10T09:35:37;27.40;69.80
5786;DHT22;2919;48.630;9.000;2023-06-10T09:38:09;27.50;69.50
5786;DHT22;2919;48.630;9.000;2023-06-10T09:40:50;27.90;68.40
5786;DHT22;2919;48.630;9.000;2023-06-10T09:43:16;27.90;67.30
5786;DHT22;2919;48.630;9.000;2023-06-10T09:45:42;27.70;68.70
5786;DHT22;2919;48.630;9.000;2023-06-10T09:48:08;27.80;69.10
5786;DHT22;2919;48.630;9.000;2023-06-10T09:50:34;28.20;67.20
5786;DHT22;2919;48.630;9.000;2023-06-10T09:53:03;27.90;68.00
5786;DHT22;2919;48.630;9.000;2023-06-10T09:55:33;28.20;66.40
5786;DHT22;2919;48.630;9.000;2023-06-10T09:57:59;28.20;65.90
5786;DHT22;2919;48.630;9.000;2023-06-10T10:00:25;28.40;66.30
5786;DHT22;2919;48.630;9.000;2023-06-10T10:02:52;28.10;65.90
5786;DHT22;2919;48.630;9.000;2023-06-10T10:05:20;28.10;65.40
5786;DHT22;2919;48.630;9.000;2023-06-10T10:07:47;28.10;64.10
5786;DHT22;2919;48.630;9.000;2023-06-10T10:10:14;28.10;65.30
5786;DHT22;2919;48.630;9.000;2023-06-10T10:12:41;27.30;66.80
5786;DHT22;2919;48.630;9.000;2023-06-10T10:15:11;27.50;67.70
5786;DHT22;2919;48.630;9.000;2023-06-10T10:17:50;27.40;68.50
5786;DHT22;2919;48.630;9.000;2023-06-10T10:20:20;27.40;69.00
5786;DHT22;2919;48.630;9.000;2023-06-10T10:22:47;27.10;65.70
5786;DHT22;2919;48.630;9.000;2023-06-10T10:25:17;27.30;66.40
5786;DHT22;2919;48.630;9.000;2023-06-10T10:28:08;27.30;65.90
5786;DHT22;2919;48.630;9.000;2023-06-10T10:30:44;27.10;67.30
5786;DHT22;2919;48.630;9.000;2023-06-10T10:33:16;26.90;68.00
5786;DHT22;2919;48.630;9.000;2023-06-10T10:35:44;26.70;71.30
5786;DHT22;2919;48.630;9.000;2023-06-10T10:38:11;26.80;68.80
5786;DHT22;2919;48.630;9.000;2023-06-10T10:40:37;26.70;68.60
5786;DHT22;2919;48.630;9.000;2023-06-10T10:43:04;26.60;69.20
5786;DHT22;2919;48.630;9.000;2023-06-10T10:45:33;26.50;70.50
5786;DHT22;2919;48.630;9.000;2023-06-10T10:48:11;26.50;71.10
5786;DHT22;2919;48.630;9.000;2023-06-10T10:50:37;26.60;70.10
5786;DHT22;2919;48.630;9.000;2023-06-10T10:53:04;27.00;67.60
5786;DHT22;2919;48.630;9.000;2023-06-10T10:55:30;26.70;68.20
5786;DHT22;2919;48.630;9.000;2023-06-10T10:58:06;26.50;70.00
5786;DHT22;2919;48.630;9.000;2023-06-10T11:00:33;26.50;69.80
5786;DHT22;2919;48.630;9.000;2023-06-10T11:05:35;27.10;68.60
5786;DHT22;2919;48.630;9.000;2023-06-10T11:08:01;27.40;66.60
5786;DHT22;2919;48.630;9.000;2023-06-10T11:10:31;26.90;68.70
5786;DHT22;2919;48.630;9.000;2023-06-10T11:12:58;26.80;67.80
5786;DHT22;2919;48.630;9.000;2023-06-10T11:15:24;26.70;70.20
5786;DHT22;2919;48.630;9.000;2023-06-10T11:18:13;26.60;70.40
5786;DHT22;2919;48.630;9.000;2023-06-10T11:23:30;26.00;70.60
5786;DHT22;2919;48.630;9.000;2023-06-10T11:31:29;27.00;67.90
5786;DHT22;2919;48.630;9.000;2023-06-10T11:33:57;27.30;69.70
5786;DHT22;2919;48.630;9.000;2023-06-10T11:36:25;27.60;66.80
5786;DHT22;2919;48.630;9.000;2023-06-10T11:39:04;27.50;67.00
5786;DHT22;2919;48.630;9.000;2023-06-10T11:41:31;27.10;67.10
5786;DHT22;2919;48.630;9.000;2023-06-10T11:44:02;27.50;66.40
5786;DHT22;2919;48.630;9.000;2023-06-10T11:46:28;27.80;68.10
5786;DHT22;2919;48.630;9.000;2023-06-10T11:48:55;27.80;65.40
5786;DHT22;2919;48.630;9.000;2023-06-10T11:51:21;27.90;63.80
5786;DHT22;2919;48.630;9.000;2023-06-10T11:53:50;27.80;64.00
5786;DHT22;2919;48.630;9.000;2023-06-10T11:56:23;27.60;64.30
5786;DHT22;2919;48.630;9.000;2023-06-10T11:58:54;27.30;65.70
5786;DHT22;2919;48.630;9.000;2023-06-10T12:01:21;27.40;64.30
5786;DHT22;2919;48.630;9.000;2023-06-10T12:03:47;27.40;63.90
5786;DHT22;2919;48.630;9.000;2023-06-10T12:06:13;27.30;64.80
5786;DHT22;2919;48.630;9.000;2023-06-10T12:08:43;27.30;65.70
5786;DHT22;2919;48.630;9.000;2023-06-10T12:11:09;27.10;64.80
5786;DHT22;2919;48.630;9.000;2023-06-10T12:13:34;27.50;66.20
5786;DHT22;2919;48.630;9.000;2023-06-10T12:16:07;27.50;65.90
5786;DHT22;2919;48.630;9.000;2023-06-10T12:18:33;27.70;64.90
5786;DHT22;2919;48.630;9.000;2023-06-10T12:20:59;27.50;64.20
5786;DHT22;2919;48.630;9.000;2023-06-10T12:23:25;27.80;64.80
5786;DHT22;2919;48.630;9.000;2023-06-10T12:25:55;27.40;63.70
5786;DHT22;2919;48.630;9.000;2023-06-10T12:28:26;27.60;64.80
5786;DHT22;2919;48.630;9.000;2023-06-10T12:30:52;27.70;61.60
5786;DHT22;2919;48.630;9.000;2023-06-10T12:33:31;27.70;63.40
5786;DHT22;2919;48.630;9.000;2023-06-10T12:35:56;27.70;61.80
5786;DHT22;2919;48.630;9.000;2023-06-10T12:38:23;27.90;61.20
5786;DHT22;2919;48.630;9.000;2023-06-10T12:41:01;28.00;62.10
5786;DHT22;2919;48.630;9.000;2023-06-10T12:43:31;27.80;62.90
5786;DHT22;2919;48.630;9.000;2023-06-10T12:46:08;28.30;60.70
5786;DHT22;2919;48.630;9.000;2023-06-10T12:48:34;27.40;60.90
5786;DHT22;2919;48.630;9.000;2023-06-10T12:50:59;27.30;60.70
5786;DHT22;2919;48.630;9.000;2023-06-10T12:53:26;27.70;62.80
5786;DHT22;2919;48.630;9.000;2023-06-10T12:55:52;27.70;62.30
5786;DHT22;2919;48.630;9.000;2023-06-10T12:58:21;27.60;60.60
5786;DHT22;2919;48.630;9.000;2023-06-10T13:00:47;27.70;62.50
5786;DHT22;2919;48.630;9.000;2023-06-10T13:03:14;27.70;64.00
5786;DHT22;2919;48.630;9.000;2023-06-10T13:05:40;27.90;62.30
5786;DHT22;2919;48.630;9.000;2023-06-10T13:08:06;27.90;62.60
5786;DHT22;2919;48.630;9.000;2023-06-10T13:10:33;27.80;61.80
5786;DHT22;2919;48.630;9.000;2023-06-10T13:13:00;27.60;62.10
5786;DHT22;2919;48.630;9.000;2023-06-10T13:15:26;27.70;62.30
5786;DHT22;2919;48.630;9.000;2023-06-10T13:17:52;27.80;62.20
5786;DHT22;2919;48.630;9.000;2023-06-10T13:20:18;28.00;62.80
5786;DHT22;2919;48.630;9.000;2023-06-10T13:22:44;27.90;62.80
5786;DHT22;2919;48.630;9.000;2023-06-10T13:25:10;28.10;61.80
5786;DHT22;2919;48.630;9.000;2023-06-10T13:27:36;27.90;62.00
5786;DHT22;2919;48.630;9.000;2023-06-10T13:30:06;27.80;61.60
5786;DHT22;2919;48.630;9.000;2023-06-10T13:32:33;28.20;60.50
5786;DHT22;2919;48.630;9.000;2023-06-10T13:34:58;27.90;60.90
5786;DHT22;2919;48.630;9.000;2023-06-10T13:37:24;28.20;60.90
5786;DHT22;2919;48.630;9.000;2023-06-10T13:39:49;28.50;60.10
5786;DHT22;2919;48.630;9.000;2023-06-10T13:42:20;28.40;60.70
5786;DHT22;2919;48.630;9.000;2023-06-10T13:44:49;28.20;61.40
5786;DHT22;2919;48.630;9.000;2023-06-10T13:47:15;28.20;61.70
5786;DHT22;2919;48.630;9.000;2023-06-10T13:49:40;27.80;60.10
5786;DHT22;2919;48.630;9.000;2023-06-10T13:52:06;27.30;59.30
5786;DHT22;2919;48.630;9.000;2023-06-10T13:54:32;27.20;60.00
5786;DHT22;2919;48.630;9.000;2023-06-10T13:56:58;27.40;62.30
5786;DHT22;2919;48.630;9.000;2023-06-10T13:59:25;27.40;64.30
5786;DHT22;2919;48.630;9.000;2023-06-10T14:01:51;27.70;62.30
5786;DHT22;2919;48.630;9.000;2023-06-10T14:04:17;28.10;60.10
5786;DHT22;2919;48.630;9.000;2023-06-10T14:06:42;28.10;60.40
5786;DHT22;2919;48.630;9.000;2023-06-10T14:09:08;28.20;62.20
5786;DHT22;2919;48.630;9.000;2023-06-10T14:11:34;28.10;61.60
5786;DHT22;2919;48.630;9.000;2023-06-10T14:14:00;28.00;63.10
5786;DHT22;2919;48.630;9.000;2023-06-10T14:16:26;27.80;61.70
5786;DHT22;2919;48.630;9.000;2023-06-10T14:18:51;27.50;62.20
5786;DHT22;2919;48.630;9.000;2023-06-10T14:21:17;27.30;62.70
5786;DHT22;2919;48.630;9.000;2023-06-10T14:23:43;27.00;62.60
5786;DHT22;2919;48.630;9.000;2023-06-10T14:26:09;26.60;63.40
5786;DHT22;2919;48.630;9.000;2023-06-10T14:28:35;26.60;62.60
5786;DHT22;2919;48.630;9.000;2023-06-10T14:31:01;26.30;64.80
5786;DHT22;2919;48.630;9.000;2023-06-10T14:33:26;26.20;64.10
5786;DHT22;2919;48.630;9.000;2023-06-10T14:35:52;26.20;65.10
5786;DHT22;2919;48.630;9.000;2023-06-10T14:38:18;26.30;64.60
5786;DHT22;2919;48.630;9.000;2023-06-10T14:40:44;26.50;65.40
5786;DHT22;2919;48.630;9.000;2023-06-10T14:43:09;26.70;65.80
5786;DHT22;2919;48.630;9.000;2023-06-10T14:45:39;26.90;66.10
5786;DHT22;2919;48.630;9.000;2023-06-10T14:48:06;27.20;63.40
5786;DHT22;2919;48.630;9.000;2023-06-10T14:50:31;27.40;62.70
5786;DHT22;2919;48.630;9.000;2023-06-10T14:52:58;27.50;62.10
5786;DHT22;2919;48.630;9.000;2023-06-10T14:55:23;27.40;63.00
5786;DHT22;2919;48.630;9.000;2023-06-10T14:57:49;27.60;61.50
5786;DHT22;2919;48.630;9.000;2023-06-10T15:00:16;27.50;62.40
5786;DHT22;2919;48.630;9.000;2023-06-10T15:02:45;27.10;62.60
5786;DHT22;2919;48.630;9.000;2023-06-10T15:05:13;26.90;62.60
5786;DHT22;2919;48.630;9.000;2023-06-10T15:07:40;26.90;62.00
5786;DHT22;2919;48.630;9.000;2023-06-10T15:10:06;26.50;64.60
5786;DHT22;2919;48.630;9.000;2023-06-10T15:12:32;26.50;63.50
5786;DHT22;2919;48.630;9.000;2023-06-10T15:14:58;26.60;64.20
5786;DHT22;2919;48.630;9.000;2023-06-10T15:17:23;26.60;64.30
5786;DHT22;2919;48.630;9.000;2023-06-10T15:19:49;26.60;64.30
5786;DHT22;2919;48.630;9.000;2023-06-10T15:22:14;26.60;64.70
5786;DHT22;2919;48.630;9.000;2023-06-10T15:24:40;27.00;63.20
5786;DHT22;2919;48.630;9.000;2023-06-10T15:27:06;27.10;63.20
5786;DHT22;2919;48.630;9.000;2023-06-10T15:29:32;27.40;62.20
5786;DHT22;2919;48.630;9.000;2023-06-10T15:31:57;27.60;61.90
5786;DHT22;2919;48.630;9.000;2023-06-10T15:34:23;27.50;63.60
5786;DHT22;2919;48.630;9.000;2023-06-10T15:36:49;27.50;63.10
5786;DHT22;2919;48.630;9.000;2023-06-10T15:39:14;27.30;62.60
5786;DHT22;2919;48.630;9.000;2023-06-10T15:41:40;26.90;64.40
5786;DHT22;2919;48.630;9.000;2023-06-10T15:44:06;26.70;65.20
5786;DHT22;2919;48.630;9.000;2023-06-10T15:46:32;26.30;66.40
5786;DHT22;2919;48.630;9.000;2023-06-10T15:48:59;26.20;67.20
5786;DHT22;2919;48.630;9.000;2023-06-10T15:51:25;25.90;68.50
5786;DHT22;2919;48.630;9.000;2023-06-10T15:53:51;25.80;68.40
5786;DHT22;2919;48.630;9.000;2023-06-10T15:56:16;25.80;67.70
5786;DHT22;2919;48.630;9.000;2023-06-10T15:58:42;25.80;68.20
5786;DHT22;2919;48.630;9.000;2023-06-10T16:01:08;25.90;68.20
5786;DHT22;2919;48.630;9.000;2023-06-10T16:03:35;26.10;67.60
5786;DHT22;2919;48.630;9.000;2023-06-10T16:06:01;26.30;68.00
5786;DHT22;2919;48.630;9.000;2023-06-10T16:08:26;26.50;65.80
5786;DHT22;2919;48.630;9.000;2023-06-10T16:10:52;26.50;65.10
5786;DHT22;2919;48.630;9.000;2023-06-10T16:13:18;26.50;66.10
5786;DHT22;2919;48.630;9.000;2023-06-10T16:15:43;26.70;64.50
5786;DHT22;2919;48.630;9.000;2023-06-10T16:18:09;26.60;65.70
5786;DHT22;2919;48.630;9.000;2023-06-10T16:20:35;26.50;66.40
5786;DHT22;2919;48.630;9.000;2023-06-10T16:23:04;26.50;64.40
5786;DHT22;2919;48.630;9.000;2023-06-10T16:25:30;26.50;64.40
5786;DHT22;2919;48.630;9.000;2023-06-10T16:27:56;26.40;64.40
5786;DHT22;2919;48.630;9.000;2023-06-10T16:30:22;26.40;64.30
5786;DHT22;2919;48.630;9.000;2023-06-10T16:32:48;26.30;65.50
5786;DHT22;2919;48.630;9.000;2023-06-10T16:35:13;26.40;66.00
5786;DHT22;2919;48.630;9.000;2023-06-10T16:37:39;26.40;66.10
5786;DHT22;2919;48.630;9.000;2023-06-10T16:40:05;26.40;67.20
5786;DHT22;2919;48.630;9.000;2023-06-10T16:42:31;26.50;67.50
5786;DHT22;2919;48.630;9.000;2023-06-10T16:44:57;26.50;67.20
5786;DHT22;2919;48.630;9.000;2023-06-10T16:47:23;26.40;68.00
5786;DHT22;2919;48.630;9.000;2023-06-10T16:49:49;26.20;66.60
5786;DHT22;2919;48.630;9.000;2023-06-10T16:52:14;25.90;68.00
5786;DHT22;2919;48.630;9.000;2023-06-10T16:54:40;25.80;66.60
5786;DHT22;2919;48.630;9.000;2023-06-10T16:57:06;25.80;66.80
5786;DHT22;2919;48.630;9.000;2023-06-10T16:59:32;25.80;67.20
5786;DHT22;2919;48.630;9.000;2023-06-10T17:01:58;25.70;68.00
5786;DHT22;2919;48.630;9.000;2023-06-10T17:04:23;25.80;66.90
5786;DHT22;2919;48.630;9.000;2023-06-10T17:06:49;25.60;67.50
5786;DHT22;2919;48.630;9.000;2023-06-10T17:09:15;25.70;67.00
5786;DHT22;2919;48.630;9.000;2023-06-10T17:11:42;25.70;66.20
5786;DHT22;2919;48.630;9.000;2023-06-10T17:14:07;25.70;65.30
5786;DHT22;2919;48.630;9.000;2023-06-10T17:16:33;25.80;64.80
5786;DHT22;2919;48.630;9.000;2023-06-10T17:18:59;25.70;66.30
5786;DHT22;2919;48.630;9.000;2023-06-10T17:21:24;25.50;66.10
5786;DHT22;2919;48.630;9.000;2023-06-10T17:23:50;25.60;67.30
5786;DHT22;2919;48.630;9.000;2023-06-10T17:26:16;25.60;66.40
5786;DHT22;2919;48.630;9.000;2023-06-10T17:28:42;25.60;66.80
5786;DHT22;2919;48.630;9.000;2023-06-10T17:31:07;25.70;67.20
5786;DHT22;2919;48.630;9.000;2023-06-10T17:33:33;25.60;67.50
5786;DHT22;2919;48.630;9.000;2023-06-10T17:35:59;25.70;67.20
5786;DHT22;2919;48.630;9.000;2023-06-10T17:38:24;25.70;67.40
5786;DHT22;2919;48.630;9.000;2023-06-10T17:40:50;25.50;68.70
5786;DHT22;2919;48.630;9.000;2023-06-10T17:43:15;25.40;69.50
5786;DHT22;2919;48.630;9.000;2023-06-10T17:45:41;25.40;66.40
5786;DHT22;2919;48.630;9.000;2023-06-10T17:48:07;25.30;67.00
5786;DHT22;2919;48.630;9.000;2023-06-10T17:50:32;25.30;67.60
5786;DHT22;2919;48.630;9.000;2023-06-10T17:52:58;25.20;67.60
5786;DHT22;2919;48.630;9.000;2023-06-10T17:55:23;24.90;68.50
5786;DHT22;2919;48.630;9.000;2023-06-10T17:57:49;24.70;69.70
5786;DHT22;2919;48.630;9.000;2023-06-10T18:00:15;24.50;71.00
5786;DHT22;2919;48.630;9.000;2023-06-10T18:02:41;24.40;71.00
5786;DHT22;2919;48.630;9.000;2023-06-10T18:05:06;24.30;71.20
5786;DHT22;2919;48.630;9.000;2023-06-10T18:07:32;24.20;70.60
5786;DHT22;2919;48.630;9.000;2023-06-10T18:09:58;24.20;70.40
5786;DHT22;2919;48.630;9.000;2023-06-10T18:12:24;24.30;71.70
5786;DHT22;2919;48.630;9.000;2023-06-10T18:14:49;24.20;71.50
5786;DHT22;2919;48.630;9.000;2023-06-10T18:17:15;24.10;71.70
5786;DHT22;2919;48.630;9.000;2023-06-10T18:19:41;24.00;71.80
5786;DHT22;2919;48.630;9.000;2023-06-10T18:22:06;24.00;72.30
5786;DHT22;2919;48.630;9.000;2023-06-10T18:24:32;24.00;72.60
5786;DHT22;2919;48.630;9.000;2023-06-10T18:26:58;23.90;72.90
5786;DHT22;2919;48.630;9.000;2023-06-10T18:29:23;23.80;73.50
5786;DHT22;2919;48.630;9.000;2023-06-10T18:31:49;23.70;74.10
5786;DHT22;2919;48.630;9.000;2023-06-10T18:34:15;23.60;74.30
5786;DHT22;2919;48.630;9.000;2023-06-10T18:36:41;23.60;74.30
5786;DHT22;2919;48.630;9.000;2023-06-10T18:39:07;23.60;74.50
5786;DHT22;2919;48.630;9.000;2023-06-10T18:41:33;23.50;74.60
5786;DHT22;2919;48.630;9.000;2023-06-10T18:43:59;23.40;74.80
5786;DHT22;2919;48.630;9.000;2023-06-10T18:46:25;23.30;75.40
5786;DHT22;2919;48.630;9.000;2023-06-10T18:48:51;23.20;75.90
5786;DHT22;2919;48.630;9.000;2023-06-10T18:51:16;23.10;76.00
5786;DHT22;2919;48.630;9.000;2023-06-10T18:53:42;23.00;76.30
5786;DHT22;2919;48.630;9.000;2023-06-10T18:56:08;22.90;76.90
5786;DHT22;2919;48.630;9.000;2023-06-10T18:58:33;22.90;77.50
5786;DHT22;2919;48.630;9.000;2023-06-10T19:01:02;22.80;77.50
5786;DHT22;2919;48.630;9.000;2023-06-10T19:03:28;22.80;78.10
5786;DHT22;2919;48.630;9.000;2023-06-10T19:05:54;22.70;77.80
5786;DHT22;2919;48.630;9.000;2023-06-10T19:08:20;22.60;78.10
5786;DHT22;2919;48.630;9.000;2023-06-10T19:10:46;22.60;78.30
5786;DHT22;2919;48.630;9.000;2023-06-10T19:13:12;22.60;78.30
5786;DHT22;2919;48.630;9.000;2023-06-10T19:15:37;22.50;78.80
5786;DHT22;2919;48.630;9.000;2023-06-10T19:18:03;22.40;78.80
5786;DHT22;2919;48.630;9.000;2023-06-10T19:20:28;22.40;78.80
5786;DHT22;2919;48.630;9.000;2023-06-10T19:22:54;22.30;79.30
5786;DHT22;2919;48.630;9.000;2023-06-10T19:25:20;22.30;79.30
5786;DHT22;2919;48.630;9.000;2023-06-10T19:27:46;22.10;79.70
5786;DHT22;2919;48.630;9.000;2023-06-10T19:30:12;22.00;80.70
5786;DHT22;2919;48.630;9.000;2023-06-10T19:32:38;21.90;80.60
5786;DHT22;2919;48.630;9.000;2023-06-10T19:35:04;21.80;80.60
5786;DHT22;2919;48.630;9.000;2023-06-10T19:37:30;21.80;81.20
5786;DHT22;2919;48.630;9.000;2023-06-10T19:39:56;21.60;82.60
5786;DHT22;2919;48.630;9.000;2023-06-10T19:42:22;21.50;83.40
5786;DHT22;2919;48.630;9.000;2023-06-10T19:44:48;21.30;82.30
5786;DHT22;2919;48.630;9.000;2023-06-10T19:47:13;21.30;82.40
5786;DHT22;2919;48.630;9.000;2023-06-10T19:49:39;21.30;83.20
5786;DHT22;2919;48.630;9.000;2023-06-10T19:52:05;21.20;84.10
5786;DHT22;2919;48.630;9.000;2023-06-10T19:54:34;21.10;83.90
5786;DHT22;2919;48.630;9.000;2023-06-10T19:57:00;21.10;83.70
5786;DHT22;2919;48.630;9.000;2023-06-10T19:59:27;21.00;84.60
5786;DHT22;2919;48.630;9.000;2023-06-10T20:01:53;20.90;85.10
5786;DHT22;2919;48.630;9.000;2023-06-10T20:04:18;20.80;86.10
5786;DHT22;2919;48.630;9.000;2023-06-10T20:06:44;20.80;86.60
5786;DHT22;2919;48.630;9.000;2023-06-10T20:09:10;20.70;87.10
5786;DHT22;2919;48.630;9.000;2023-06-10T20:11:35;20.60;87.50
5786;DHT22;2919;48.630;9.000;2023-06-10T20:14:01;20.50;87.80
5786;DHT22;2919;48.630;9.000;2023-06-10T20:16:26;20.40;88.10
5786;DHT22;2919;48.630;9.000;2023-06-10T20:18:52;20.30;89.00
5786;DHT22;2919;48.630;9.000;2023-06-10T20:21:18;20.30;89.40
5786;DHT22;2919;48.630;9.000;2023-06-10T20:23:47;20.10;89.80
5786;DHT22;2919;48.630;9.000;2023-06-10T20:26:13;20.00;90.20
5786;DHT22;2919;48.630;9.000;2023-06-10T20:28:39;19.90;90.30
5786;DHT22;2919;48.630;9.000;2023-06-10T20:31:05;19.70;90.70
5786;DHT22;2919;48.630;9.000;2023-06-10T20:33:31;19.60;90.70
5786;DHT22;2919;48.630;9.000;2023-06-10T20:35:57;19.50;91.00
5786;DHT22;2919;48.630;9.000;2023-06-10T20:38:23;19.40;91.20
5786;DHT22;2919;48.630;9.000;2023-06-10T20:40:48;19.40;91.20
5786;DHT22;2919;48.630;9.000;2023-06-10T20:43:15;19.30;91.60
5786;DHT22;2919;48.630;9.000;2023-06-10T20:45:43;19.20;91.50
5786;DHT22;2919;48.630;9.000;2023-06-10T20:48:08;19.20;91.70
5786;DHT22;2919;48.630;9.000;2023-06-10T20:50:34;19.10;92.00
5786;DHT22;2919;48.630;9.000;2023-06-10T20:53:01;19.10;92.30
5786;DHT22;2919;48.630;9.000;2023-06-10T20:55:26;19.00;92.50
5786;DHT22;2919;48.630;9.000;2023-06-10T20:57:53;18.90;92.60
5786;DHT22;2919;48.630;9.000;2023-06-10T21:00:24;18.90;92.80
5786;DHT22;2919;48.630;9.000;2023-06-10T21:02:50;18.80;93.10
5786;DHT22;2919;48.630;9.000;2023-06-10T21:05:16;18.80;93.30
5786;DHT22;2919;48.630;9.000;2023-06-10T21:07:41;18.80;93.40
5786;DHT22;2919;48.630;9.000;2023-06-10T21:10:10;18.70;93.70
5786;DHT22;2919;48.630;9.000;2023-06-10T21:12:36;18.60;93.80
5786;DHT22;2919;48.630;9.000;2023-06-10T21:15:02;18.60;93.80
5786;DHT22;2919;48.630;9.000;2023-06-10T21:17:27;18.50;94.00
5786;DHT22;2919;48.630;9.000;2023-06-10T21:19:53;18.60;94.00
5786;DHT22;2919;48.630;9.000;2023-06-10T21:22:19;18.70;94.00
5786;DHT22;2919;48.630;9.000;2023-06-10T21:24:44;18.50;94.30
5786;DHT22;2919;48.630;9.000;2023-06-10T21:27:10;18.50;94.60
5786;DHT22;2919;48.630;9.000;2023-06-10T21:29:36;18.40;94.90
5786;DHT22;2919;48.630;9.000;2023-06-10T21:32:02;18.40;94.90
5786;DHT22;2919;48.630;9.000;2023-06-10T21:34:28;18.40;95.20
5786;DHT22;2919;48.630;9.000;2023-06-10T21:36:53;18.40;95.20
5786;DHT22;2919;48.630;9.000;2023-06-10T21:39:19;18.40;95.30
5786;DHT22;2919;48.630;9.000;2023-06-10T21:41:45;18.50;95.50
5786;DHT22;2919;48.630;9.000;2023-06-10T21:44:10;18.50;95.30
5786;DHT22;2919;48.630;9.000;2023-06-10T21:46:36;18.50;95.50
5786;DHT22;2919;48.630;9.000;2023-06-10T21:49:02;18.50;95.50
5786;DHT22;2919;48.630;9.000;2023-06-10T21:58:47;18.60;95.30
5786;DHT22;2919;48.630;9.000;2023-06-10T22:06:08;18.50;95.50
5786;DHT22;2919;48.630;9.000;2023-06-10T22:08:35;18.50;95.70
5786;DHT22;2919;48.630;9.000;2023-06-10T22:13:27;18.30;96.10
5786;DHT22;2919;48.630;9.000;2023-06-10T22:15:53;18.20;96.80
5786;DHT22;2919;48.630;9.000;2023-06-10T22:18:18;18.10;97.40
5786;DHT22;2919;48.630;9.000;2023-06-10T22:20:44;18.00;97.70
5786;DHT22;2919;48.630;9.000;2023-06-10T22:23:10;17.90;98.00
5786;DHT22;2919;48.630;9.000;2023-06-10T22:25:36;17.80;98.30
5786;DHT22;2919;48.630;9.000;2023-06-10T22:28:01;17.70;98.60
5786;DHT22;2919;48.630;9.000;2023-06-10T22:30:27;17.70;98.80
5786;DHT22;2919;48.630;9.000;2023-06-10T22:32:53;17.70;99.10
5786;DHT22;2919;48.630;9.000;2023-06-10T22:35:18;17.60;99.40
5786;DHT22;2919;48.630;9.000;2023-06-10T22:37:44;17.60;99.70
5786;DHT22;2919;48.630;9.000;2023-06-10T22:40:10;17.50;99.90
5786;DHT22;2919;48.630;9.000;2023-06-10T22:42:35;17.40;99.90
5786;DHT22;2919;48.630;9.000;2023-06-10T22:45:01;17.40;99.90
5786;DHT22;2919;48.630;9.000;2023-06-10T22:47:27;17.30;99.90
5786;DHT22;2919;48.630;9.000;2023-06-10T22:49:52;17.30;99.90
5786;DHT22;2919;48.630;9.000;2023-06-10T22:52:18;17.20;99.90
5786;DHT22;2919;48.630;9.000;2023-06-10T22:54:43;17.20;99.90
5786;DHT22;2919;48.630;9.000;2023-06-10T22:57:09;17.20;99.90
5786;DHT22;2919;48.630;9.000;2023-06-10T22:59:35;17.10;99.90
5786;DHT22;2919;48.630;9.000;2023-06-10T23:02:00;17.00;99.90
5786;DHT22;2919;48.630;9.000;2023-06-10T23:04:26;17.00;99.90
5786;DHT22;2919;48.630;9.000;2023-06-10T23:06:52;16.90;99.90
5786;DHT22;2919;48.630;9.000;2023-06-10T23:09:17;16.90;99.90
5786;DHT22;2919;48.630;9.000;2023-06-10T23:11:43;16.80;99.90
5786;DHT22;2919;48.630;9.000;2023-06-10T23:14:09;16.80;99.90
5786;DHT22;2919;48.630;9.000;2023-06-10T23:16:35;16.70;99.90
5786;DHT22;2919;48.630;9.000;2023-06-10T23:19:01;16.70;99.90
5786;DHT22;2919;48.630;9.000;2023-06-10T23:21:27;16.70;99.90